createdAt,value
2018-07-31T04:00:28.983Z,152.00
2018-07-31T04:01:29.009Z,164.00
2018-07-31T04:02:28.935Z,172.00
2018-07-31T04:03:28.911Z,180.00
2018-07-31T04:04:28.910Z,188.00
2018-07-31T04:05:28.892Z,192.00
2018-07-31T04:06:28.896Z,204.00
2018-07-31T04:07:28.867Z,212.00
2018-07-31T04:08:28.854Z,220.00
2018-07-31T04:09:28.863Z,228.00
2018-07-31T04:10:28.835Z,240.00
2018-07-31T04:11:28.827Z,248.00
2018-07-31T04:12:28.861Z,260.00
2018-07-31T04:13:28.816Z,268.00
2018-07-31T04:14:28.808Z,276.00
2018-07-31T04:15:28.779Z,288.00
2018-07-31T04:16:28.766Z,296.00
2018-07-31T04:17:28.754Z,308.00
2018-07-31T04:18:28.744Z,320.00
2018-07-31T04:19:28.740Z,324.00
2018-07-31T04:20:28.738Z,336.00
2018-07-31T04:21:28.707Z,344.00
2018-07-31T04:22:28.699Z,352.00
2018-07-31T04:23:28.686Z,364.00
2018-07-31T04:24:28.696Z,368.00
2018-07-31T04:25:28.674Z,380.00
2018-07-31T04:26:28.654Z,392.00
2018-07-31T04:27:28.655Z,400.00
2018-07-31T04:28:28.635Z,408.00
2018-07-31T04:29:28.618Z,416.00
2018-07-31T04:30:28.618Z,424.00
2018-07-31T04:31:28.600Z,428.00
2018-07-31T04:32:28.585Z,440.00
2018-07-31T04:33:28.575Z,452.00
2018-07-31T04:34:28.568Z,456.00
2018-07-31T04:35:28.564Z,468.00
2018-07-31T04:36:28.542Z,480.00
2018-07-31T04:37:28.530Z,488.00
2018-07-31T04:38:28.521Z,492.00
2018-07-31T04:39:28.506Z,500.00
2018-07-31T04:40:28.507Z,508.00
2018-07-31T04:41:28.488Z,516.00
2018-07-31T04:42:28.474Z,524.00
2018-07-31T04:43:28.478Z,532.00
2018-07-31T04:44:28.457Z,540.00
2018-07-31T04:45:28.458Z,548.00
2018-07-31T04:46:28.437Z,556.00
2018-07-31T04:47:28.420Z,564.00
2018-07-31T04:48:28.418Z,572.00
2018-07-31T04:49:28.399Z,580.00
2018-07-31T04:50:28.399Z,588.00
2018-07-31T04:51:28.376Z,600.00
2018-07-31T04:52:28.365Z,612.00
2018-07-31T04:53:28.371Z,616.00
2018-07-31T04:54:28.344Z,624.00
2018-07-31T04:55:28.351Z,632.00
2018-07-31T04:56:28.320Z,648.00
2018-07-31T04:57:28.315Z,652.00
2018-07-31T04:58:28.324Z,664.00
2018-07-31T04:59:28.294Z,672.00
2018-07-31T05:00:28.276Z,676.00
2018-07-31T05:01:28.275Z,688.00
2018-07-31T05:02:28.253Z,696.00
2018-07-31T05:03:28.243Z,704.00
2018-07-31T05:04:28.345Z,716.00
2018-07-31T05:05:28.228Z,724.00
2018-07-31T05:06:28.221Z,736.00
2018-07-31T05:07:28.202Z,740.00
2018-07-31T05:08:28.194Z,748.00
2018-07-31T05:09:28.222Z,756.00
2018-07-31T05:10:28.217Z,768.00
2018-07-31T05:11:28.173Z,776.00
2018-07-31T05:12:28.145Z,784.00
2018-07-31T05:13:28.132Z,792.00
2018-07-31T05:14:28.163Z,800.00
2018-07-31T05:15:28.111Z,804.00
2018-07-31T05:16:28.110Z,812.00
2018-07-31T05:17:28.107Z,828.00
2018-07-31T05:18:28.099Z,828.00
2018-07-31T05:19:28.067Z,840.00
2018-07-31T05:20:28.053Z,848.00
2018-07-31T05:21:28.055Z,856.00
2018-07-31T05:22:28.037Z,864.00
2018-07-31T05:23:28.024Z,872.00
2018-07-31T05:24:28.009Z,880.00
2018-07-31T05:25:28.001Z,892.00
2018-07-31T05:26:28.002Z,900.00
2018-07-31T05:27:27.976Z,904.00
2018-07-31T05:28:27.974Z,920.00
2018-07-31T05:29:27.958Z,928.00
2018-07-31T05:30:27.947Z,932.00
2018-07-31T05:31:27.946Z,944.00
2018-07-31T05:32:27.950Z,952.00
2018-07-31T05:33:27.911Z,956.00
2018-07-31T05:34:27.901Z,968.00
2018-07-31T05:35:27.892Z,976.00
2018-07-31T05:36:27.891Z,984.00
2018-07-31T05:37:27.867Z,992.00
2018-07-31T05:38:27.862Z,1000.00
2018-07-31T05:39:27.869Z,1012.00
2018-07-31T05:40:27.856Z,1016.00
2018-07-31T05:41:27.847Z,1028.00
2018-07-31T05:42:27.817Z,1032.00
2018-07-31T05:43:27.800Z,1036.00
2018-07-31T05:44:27.789Z,1048.00
2018-07-31T05:45:27.778Z,1056.00
2018-07-31T05:46:27.789Z,1060.00
2018-07-31T05:47:27.760Z,1072.00
2018-07-31T05:48:27.747Z,1076.00
2018-07-31T05:49:27.737Z,1088.00
2018-07-31T05:50:27.727Z,1096.00
2018-07-31T05:51:27.713Z,1096.00
2018-07-31T05:52:27.717Z,1104.00
2018-07-31T05:53:27.695Z,1108.00
2018-07-31T05:54:27.685Z,1116.00
2018-07-31T05:55:27.675Z,1128.00
2018-07-31T05:56:27.659Z,1132.00
2018-07-31T05:57:27.724Z,1144.00
2018-07-31T05:58:27.639Z,1152.00
2018-07-31T05:59:27.632Z,1156.00
2018-07-31T06:00:27.617Z,1164.00
2018-07-31T06:01:27.605Z,1180.00
2018-07-31T06:02:27.608Z,1188.00
2018-07-31T06:03:27.612Z,1196.00
2018-07-31T06:04:27.597Z,1204.00
2018-07-31T06:05:27.560Z,1216.00
2018-07-31T06:06:27.551Z,1232.00
2018-07-31T06:07:27.664Z,1288.00
2018-07-31T06:08:27.537Z,1464.00
2018-07-31T06:09:27.555Z,2280.00
2018-07-31T06:10:27.508Z,3528.00
2018-07-31T06:11:27.497Z,3968.00
2018-07-31T06:12:27.502Z,4036.00
2018-07-31T06:13:27.476Z,4084.00
2018-07-31T06:14:27.461Z,4132.00
2018-07-31T06:15:27.451Z,4188.00
2018-07-31T06:16:27.442Z,4236.00
2018-07-31T06:17:27.438Z,4280.00
2018-07-31T06:18:27.415Z,4348.00
2018-07-31T06:19:27.420Z,4408.00
2018-07-31T06:20:27.394Z,4456.00
2018-07-31T06:21:27.386Z,5260.00
2018-07-31T06:22:27.384Z,5260.00
2018-07-31T06:23:27.359Z,5316.00
2018-07-31T06:24:27.355Z,5472.00
2018-07-31T06:25:27.388Z,5496.00
2018-07-31T06:26:27.327Z,5524.00
2018-07-31T06:27:27.328Z,5540.00
2018-07-31T06:28:27.325Z,5560.00
2018-07-31T06:29:27.295Z,5596.00
2018-07-31T06:30:27.286Z,5680.00
2018-07-31T06:31:27.272Z,5752.00
2018-07-31T06:32:27.304Z,5820.00
2018-07-31T06:33:27.253Z,5876.00
2018-07-31T06:34:27.242Z,5924.00
2018-07-31T06:35:27.231Z,5972.00
2018-07-31T06:36:27.221Z,6004.00
2018-07-31T06:37:27.207Z,6024.00
2018-07-31T06:38:27.210Z,6044.00
2018-07-31T06:39:27.189Z,6064.00
2018-07-31T06:40:27.199Z,6100.00
2018-07-31T06:41:27.166Z,6124.00
2018-07-31T06:42:27.163Z,6136.00
2018-07-31T06:43:27.165Z,6184.00
2018-07-31T06:44:27.132Z,6208.00
2018-07-31T06:45:27.120Z,6244.00
2018-07-31T06:46:27.111Z,6268.00
2018-07-31T06:47:27.098Z,6296.00
2018-07-31T06:48:27.102Z,6312.00
2018-07-31T06:49:27.076Z,6352.00
2018-07-31T06:50:27.068Z,6280.00
2018-07-31T06:51:27.056Z,6192.00
2018-07-31T06:52:27.045Z,6280.00
2018-07-31T06:53:27.046Z,6368.00
2018-07-31T06:54:27.023Z,6428.00
2018-07-31T06:55:27.029Z,6452.00
2018-07-31T06:56:27.007Z,6492.00
2018-07-31T06:57:26.989Z,6504.00
2018-07-31T06:58:26.992Z,6536.00
2018-07-31T06:59:27.013Z,6560.00
2018-07-31T07:00:26.957Z,6604.00
2018-07-31T07:01:26.957Z,6624.00
2018-07-31T07:02:26.940Z,6588.00
2018-07-31T07:03:26.936Z,6660.00
2018-07-31T07:04:26.917Z,6492.00
2018-07-31T07:05:26.912Z,6348.00
2018-07-31T07:06:26.893Z,6412.00
2018-07-31T07:07:26.884Z,6440.00
2018-07-31T07:08:26.882Z,6568.00
2018-07-31T07:09:26.864Z,6544.00
2018-07-31T07:10:26.851Z,6592.00
2018-07-31T07:11:26.839Z,6656.00
2018-07-31T07:12:26.831Z,6652.00
2018-07-31T07:13:26.828Z,6748.00
2018-07-31T07:14:26.811Z,6784.00
2018-07-31T07:15:26.921Z,6848.00
2018-07-31T07:16:26.790Z,6832.00
2018-07-31T07:17:26.774Z,6856.00
2018-07-31T07:18:26.775Z,6920.00
2018-07-31T07:19:26.752Z,6964.00
2018-07-31T07:20:26.744Z,7056.00
2018-07-31T07:21:26.732Z,7192.00
2018-07-31T07:22:26.719Z,7292.00
2018-07-31T07:23:26.725Z,7452.00
2018-07-31T07:24:26.711Z,7548.00
2018-07-31T07:25:26.690Z,7680.00
2018-07-31T07:26:26.678Z,7792.00
2018-07-31T07:27:26.671Z,7916.00
2018-07-31T07:28:26.657Z,8076.00
2018-07-31T07:29:26.656Z,8324.00
2018-07-31T07:30:26.635Z,9256.00
2018-07-31T07:31:26.627Z,11628.00
2018-07-31T07:32:26.615Z,13632.00
2018-07-31T07:33:26.605Z,12768.00
2018-07-31T07:34:26.609Z,12032.00
2018-07-31T07:35:26.587Z,11004.00
2018-07-31T07:36:26.574Z,10820.00
2018-07-31T07:37:26.563Z,11648.00
2018-07-31T07:38:26.559Z,13728.00
2018-07-31T07:39:26.558Z,20032.00
2018-07-31T07:40:26.536Z,31360.00
2018-07-31T07:41:26.522Z,48384.00
2018-07-31T07:42:26.512Z,57952.00
2018-07-31T07:43:26.501Z,58912.00
2018-07-31T07:44:26.503Z,59072.00
2018-07-31T07:45:26.495Z,58912.00
2018-07-31T07:46:26.470Z,58656.00
2018-07-31T07:47:26.467Z,60000.00
2018-07-31T07:48:26.460Z,23296.00
2018-07-31T07:49:26.508Z,16800.00
2018-07-31T07:50:26.430Z,10100.00
2018-07-31T07:51:26.418Z,9600.00
2018-07-31T07:52:26.409Z,9612.00
2018-07-31T07:53:26.399Z,9648.00
2018-07-31T07:54:26.607Z,9632.00
2018-07-31T07:55:26.380Z,9624.00
2018-07-31T07:56:26.367Z,9636.00
2018-07-31T07:57:26.360Z,9740.00
2018-07-31T07:58:26.360Z,9808.00
2018-07-31T07:59:26.350Z,9788.00
2018-07-31T08:00:26.324Z,9836.00
2018-07-31T08:01:26.315Z,9884.00
2018-07-31T08:02:26.304Z,9992.00
2018-07-31T08:03:26.294Z,10100.00
2018-07-31T08:04:26.297Z,10168.00
2018-07-31T08:05:26.274Z,10160.00
2018-07-31T08:06:26.262Z,10272.00
2018-07-31T08:07:26.249Z,10352.00
2018-07-31T08:08:26.240Z,10576.00
2018-07-31T08:09:26.249Z,10728.00
2018-07-31T08:10:26.225Z,10804.00
2018-07-31T08:11:26.207Z,10808.00
2018-07-31T08:12:26.196Z,10840.00
2018-07-31T08:13:26.191Z,11032.00
2018-07-31T08:14:26.176Z,11360.00
2018-07-31T08:15:26.180Z,11424.00
2018-07-31T08:16:26.156Z,11328.00
2018-07-31T08:17:26.151Z,11092.00
2018-07-31T08:18:26.137Z,11264.00
2018-07-31T08:19:26.129Z,11264.00
2018-07-31T08:20:26.166Z,11456.00
2018-07-31T08:21:26.102Z,11872.00
2018-07-31T08:22:26.095Z,12128.00
2018-07-31T08:23:26.090Z,12192.00
2018-07-31T08:24:26.071Z,12416.00
2018-07-31T08:25:26.077Z,12576.00
2018-07-31T08:26:26.050Z,12832.00
2018-07-31T08:27:26.044Z,12800.00
2018-07-31T08:28:26.064Z,12672.00
2018-07-31T08:29:26.023Z,12768.00
2018-07-31T08:30:26.021Z,12800.00
2018-07-31T08:31:26.007Z,13056.00
2018-07-31T08:32:25.991Z,13504.00
2018-07-31T08:33:26.017Z,14560.00
2018-07-31T08:34:25.980Z,15488.00
2018-07-31T08:35:25.974Z,16000.00
2018-07-31T08:36:25.953Z,19936.00
2018-07-31T08:37:25.947Z,35456.00
2018-07-31T08:38:25.931Z,53792.00
2018-07-31T08:39:25.917Z,61600.00
2018-07-31T08:40:25.919Z,4364.00
2018-07-31T08:41:25.924Z,3356.00
2018-07-31T08:42:25.935Z,3016.00
2018-07-31T08:43:25.881Z,2720.00
2018-07-31T08:44:25.871Z,2448.00
2018-07-31T08:45:25.867Z,2348.00
2018-07-31T08:46:25.848Z,2312.00
2018-07-31T08:47:25.835Z,2360.00
2018-07-31T08:48:25.826Z,3324.00
2018-07-31T08:49:25.832Z,4376.00
2018-07-31T08:50:27.060Z,44832.00
2018-07-31T08:51:25.799Z,3112.00
2018-07-31T08:52:25.783Z,2496.00
2018-07-31T08:53:25.777Z,2356.00
2018-07-31T08:54:25.769Z,2384.00
2018-07-31T08:55:25.771Z,2400.00
2018-07-31T08:56:25.745Z,2544.00
2018-07-31T08:57:25.740Z,2460.00
2018-07-31T08:58:25.731Z,2480.00
2018-07-31T08:59:25.718Z,2384.00
2018-07-31T09:00:25.728Z,2488.00
2018-07-31T09:01:25.692Z,2696.00
2018-07-31T09:02:25.685Z,2564.00
2018-07-31T09:03:25.675Z,2604.00
2018-07-31T09:04:25.663Z,2476.00
2018-07-31T09:05:25.668Z,3212.00
2018-07-31T09:06:25.643Z,2924.00
2018-07-31T09:07:25.629Z,2116.00
2018-07-31T09:08:25.646Z,1908.00
2018-07-31T09:09:25.615Z,1924.00
2018-07-31T09:10:25.599Z,1844.00
2018-07-31T09:11:25.603Z,1764.00
2018-07-31T09:12:25.580Z,1724.00
2018-07-31T09:13:25.567Z,5544.00
2018-07-31T09:14:25.558Z,14496.00
2018-07-31T09:15:25.551Z,2080.00
2018-07-31T09:16:25.549Z,2680.00
2018-07-31T09:17:25.544Z,13536.00
2018-07-31T09:18:25.516Z,16000.00
2018-07-31T09:19:25.506Z,15424.00
2018-07-31T09:20:25.495Z,5304.00
2018-07-31T09:21:25.498Z,13664.00
2018-07-31T09:22:25.492Z,15936.00
2018-07-31T09:23:25.465Z,16224.00
2018-07-31T09:24:25.493Z,16352.00
2018-07-31T09:25:25.441Z,16192.00
2018-07-31T09:26:25.443Z,6168.00
2018-07-31T09:27:25.421Z,14496.00
2018-07-31T09:28:25.408Z,16064.00
2018-07-31T09:29:25.400Z,16064.00
2018-07-31T09:30:25.397Z,15552.00
2018-07-31T09:31:25.392Z,15584.00
2018-07-31T09:32:25.367Z,4264.00
2018-07-31T09:33:25.357Z,10468.00
2018-07-31T09:34:25.347Z,3092.00
2018-07-31T09:35:25.351Z,2664.00
2018-07-31T09:36:25.387Z,3448.00
2018-07-31T09:37:25.313Z,14464.00
2018-07-31T09:38:25.306Z,15072.00
2018-07-31T09:39:25.303Z,15008.00
2018-07-31T09:40:25.283Z,15200.00
2018-07-31T09:41:25.287Z,15168.00
2018-07-31T09:42:25.261Z,15456.00
2018-07-31T09:43:25.251Z,15008.00
2018-07-31T09:44:25.241Z,15008.00
2018-07-31T09:45:25.232Z,9732.00
2018-07-31T09:46:25.241Z,5704.00
2018-07-31T09:47:25.210Z,12160.00
2018-07-31T09:48:25.237Z,14240.00
2018-07-31T09:49:25.187Z,13952.00
2018-07-31T09:50:25.175Z,13600.00
2018-07-31T09:51:25.165Z,13376.00
2018-07-31T09:52:25.169Z,13088.00
2018-07-31T09:53:25.145Z,12800.00
2018-07-31T09:54:25.136Z,12480.00
2018-07-31T09:55:25.129Z,12192.00
2018-07-31T09:56:25.115Z,11648.00
2018-07-31T09:57:25.115Z,11072.00
2018-07-31T09:58:25.096Z,10880.00
2018-07-31T09:59:25.082Z,10720.00
2018-07-31T10:00:25.070Z,9340.00
2018-07-31T10:01:25.062Z,8568.00
2018-07-31T10:02:25.066Z,8680.00
2018-07-31T10:03:25.041Z,8456.00
2018-07-31T10:04:25.032Z,10348.00
2018-07-31T10:05:25.136Z,9972.00
2018-07-31T10:06:25.011Z,9540.00
2018-07-31T10:07:25.007Z,8612.00
2018-07-31T10:08:24.991Z,7560.00
2018-07-31T10:09:24.979Z,6880.00
2018-07-31T10:10:24.966Z,6240.00
2018-07-31T10:11:24.958Z,5832.00
2018-07-31T10:12:24.974Z,5680.00
2018-07-31T10:13:24.933Z,5748.00
2018-07-31T10:14:24.922Z,6080.00
2018-07-31T10:15:24.913Z,6108.00
2018-07-31T10:16:24.900Z,5964.00
2018-07-31T10:17:24.903Z,5712.00
2018-07-31T10:18:24.880Z,5432.00
2018-07-31T10:19:24.869Z,5140.00
2018-07-31T10:20:24.859Z,4960.00
2018-07-31T10:21:24.849Z,4772.00
2018-07-31T10:22:24.854Z,4580.00
2018-07-31T10:23:24.830Z,4472.00
2018-07-31T10:24:24.869Z,4284.00
2018-07-31T10:25:24.808Z,4164.00
2018-07-31T10:26:24.798Z,4236.00
2018-07-31T10:27:24.797Z,4332.00
2018-07-31T10:28:24.777Z,4352.00
2018-07-31T10:29:24.767Z,4364.00
2018-07-31T10:30:24.760Z,4364.00
2018-07-31T10:31:24.747Z,4256.00
2018-07-31T10:32:24.750Z,4168.00
2018-07-31T10:33:24.726Z,4012.00
2018-07-31T10:34:24.719Z,4016.00
2018-07-31T10:35:24.714Z,4040.00
2018-07-31T10:36:24.699Z,4060.00
2018-07-31T10:37:24.710Z,4088.00
2018-07-31T10:38:24.870Z,4140.00
2018-07-31T10:39:24.663Z,4060.00
2018-07-31T10:40:24.652Z,3960.00
2018-07-31T10:41:24.644Z,3948.00
2018-07-31T10:42:24.640Z,3852.00
2018-07-31T10:43:24.636Z,3736.00
2018-07-31T10:44:24.611Z,3636.00
2018-07-31T10:45:24.601Z,3608.00
2018-07-31T10:46:24.604Z,3616.00
2018-07-31T10:47:24.581Z,3700.00
2018-07-31T10:48:24.585Z,3744.00
2018-07-31T10:49:24.563Z,3444.00
2018-07-31T10:50:24.555Z,3140.00
2018-07-31T10:51:24.542Z,2992.00
2018-07-31T10:52:24.670Z,3020.00
2018-07-31T10:53:24.569Z,3108.00
2018-07-31T10:54:24.512Z,3072.00
2018-07-31T10:55:24.501Z,2968.00
2018-07-31T10:56:24.491Z,2808.00
2018-07-31T10:57:24.485Z,2768.00
2018-07-31T10:58:24.554Z,2776.00
2018-07-31T10:59:24.462Z,2892.00
2018-07-31T11:00:24.464Z,2976.00
2018-07-31T11:01:24.485Z,2956.00
2018-07-31T11:02:24.428Z,2960.00
2018-07-31T11:03:24.432Z,3036.00
2018-07-31T11:04:24.408Z,3120.00
2018-07-31T11:05:24.402Z,3056.00
2018-07-31T11:06:24.422Z,2944.00
2018-07-31T11:07:24.385Z,2760.00
2018-07-31T11:08:24.382Z,2660.00
2018-07-31T11:09:24.361Z,2544.00
2018-07-31T11:10:24.374Z,2516.00
2018-07-31T11:11:24.994Z,2608.00
2018-07-31T11:12:24.602Z,2656.00
2018-07-31T11:13:26.448Z,2684.00
2018-07-31T11:14:24.307Z,2696.00
2018-07-31T11:15:24.418Z,2624.00
2018-07-31T11:16:24.291Z,2552.00
2018-07-31T11:17:24.281Z,2440.00
2018-07-31T11:18:24.283Z,2344.00
2018-07-31T11:19:24.256Z,2272.00
2018-07-31T11:20:24.245Z,2184.00
2018-07-31T11:21:24.236Z,2176.00
2018-07-31T11:22:24.223Z,2364.00
2018-07-31T11:23:24.215Z,2392.00
2018-07-31T11:24:24.218Z,2216.00
2018-07-31T11:26:57.650Z,2292.00
2018-07-31T11:27:33.426Z,2440.00
2018-07-31T11:28:33.421Z,2520.00
2018-07-31T11:29:33.403Z,2672.00
2018-07-31T11:30:33.391Z,2804.00
2018-07-31T11:31:33.377Z,2792.00
2018-07-31T11:32:33.366Z,2840.00
2018-07-31T11:33:33.367Z,2896.00
2018-07-31T11:34:33.346Z,2908.00
2018-07-31T11:35:33.338Z,2872.00
2018-07-31T11:36:33.323Z,2840.00
2018-07-31T11:37:33.319Z,2908.00
2018-07-31T11:38:33.372Z,2964.00
2018-07-31T11:39:33.293Z,2892.00
2018-07-31T11:40:33.284Z,2820.00
2018-07-31T11:41:33.270Z,2780.00
2018-07-31T11:42:33.264Z,2796.00
2018-07-31T11:43:33.282Z,2796.00
2018-07-31T11:44:33.242Z,2740.00
2018-07-31T11:45:33.228Z,2660.00
2018-07-31T11:46:33.218Z,2560.00
2018-07-31T11:47:33.208Z,2492.00
2018-07-31T11:48:33.241Z,2512.00
2018-07-31T11:49:33.198Z,2532.00
2018-07-31T11:50:33.175Z,2468.00
2018-07-31T11:51:33.163Z,2440.00
2018-07-31T11:52:33.157Z,2416.00
2018-07-31T11:53:33.142Z,2352.00
2018-07-31T11:54:33.144Z,2360.00
2018-07-31T11:55:33.123Z,2368.00
2018-07-31T11:56:33.114Z,2348.00
2018-07-31T11:57:33.101Z,2268.00
2018-07-31T11:58:33.091Z,2164.00
2018-07-31T11:59:33.094Z,2276.00
2018-07-31T12:00:33.074Z,2160.00
2018-07-31T12:01:33.057Z,2140.00
2018-07-31T12:02:33.071Z,2052.00
2018-07-31T12:03:33.039Z,1972.00
2018-07-31T12:04:33.175Z,1984.00
2018-07-31T12:05:33.016Z,2048.00
2018-07-31T12:06:33.005Z,2036.00
2018-07-31T12:07:32.995Z,2196.00
2018-07-31T12:08:32.985Z,2288.00
2018-07-31T12:09:32.997Z,2340.00
2018-07-31T12:10:32.963Z,2088.00
2018-07-31T12:11:33.004Z,2120.00
2018-07-31T12:12:32.941Z,2252.00
2018-07-31T12:13:32.928Z,2264.00
2018-07-31T12:14:32.920Z,2208.00
2018-07-31T12:15:32.963Z,2080.00
2018-07-31T12:16:32.902Z,2076.00
2018-07-31T12:17:32.890Z,2052.00
2018-07-31T12:18:32.875Z,1996.00
2018-07-31T12:19:32.871Z,2004.00
2018-07-31T12:20:32.870Z,1936.00
2018-07-31T12:21:32.846Z,1824.00
2018-07-31T12:22:32.836Z,1816.00
2018-07-31T12:23:32.825Z,1880.00
2018-07-31T12:24:32.812Z,1944.00
2018-07-31T12:25:32.816Z,1948.00
2018-07-31T12:26:32.792Z,1912.00
2018-07-31T12:27:32.789Z,1924.00
2018-07-31T12:28:32.769Z,1924.00
2018-07-31T12:29:32.760Z,1952.00
2018-07-31T12:30:32.759Z,1988.00
2018-07-31T12:31:32.739Z,1996.00
2018-07-31T12:32:32.729Z,1920.00
2018-07-31T12:33:32.720Z,1860.00
2018-07-31T12:34:32.706Z,1848.00
2018-07-31T12:35:32.706Z,1828.00
2018-07-31T12:36:32.687Z,1840.00
2018-07-31T12:37:32.678Z,1896.00
2018-07-31T12:38:32.783Z,1980.00
2018-07-31T12:39:32.654Z,1952.00
2018-07-31T12:40:32.655Z,1956.00
2018-07-31T12:41:32.634Z,2044.00
2018-07-31T12:42:32.623Z,2136.00
2018-07-31T12:43:32.611Z,2120.00
2018-07-31T12:44:32.600Z,2176.00
2018-07-31T12:45:32.599Z,2236.00
2018-07-31T12:46:32.578Z,2180.00
2018-07-31T12:47:32.570Z,2100.00
2018-07-31T12:48:32.615Z,2044.00
2018-07-31T12:49:32.551Z,2032.00
2018-07-31T12:50:32.547Z,2208.00
2018-07-31T12:51:32.527Z,2276.00
2018-07-31T12:52:32.520Z,2288.00
2018-07-31T12:53:32.504Z,2216.00
2018-07-31T12:54:32.493Z,2156.00
2018-07-31T12:55:32.498Z,2176.00
2018-07-31T12:56:32.474Z,2240.00
2018-07-31T12:57:32.465Z,2244.00
2018-07-31T12:58:32.453Z,2204.00
2018-07-31T12:59:32.442Z,2116.00
2018-07-31T13:00:32.432Z,2044.00
2018-07-31T13:01:32.437Z,1980.00
2018-07-31T13:02:32.410Z,1956.00
2018-07-31T13:03:32.402Z,1908.00
2018-07-31T13:04:32.391Z,1864.00
2018-07-31T13:05:32.378Z,1812.00
2018-07-31T13:06:32.415Z,1752.00
2018-07-31T13:07:32.359Z,1736.00
2018-07-31T13:08:32.346Z,1692.00
2018-07-31T13:09:32.337Z,1648.00
2018-07-31T13:10:32.329Z,1640.00
2018-07-31T13:11:32.328Z,1692.00
2018-07-31T13:12:32.302Z,1724.00
2018-07-31T13:13:32.302Z,1700.00
2018-07-31T13:14:32.282Z,1628.00
2018-07-31T13:15:32.275Z,1684.00
2018-07-31T13:16:32.273Z,1688.00
2018-07-31T13:17:32.249Z,1696.00
2018-07-31T13:18:32.243Z,1632.00
2018-07-31T13:19:32.230Z,1528.00
2018-07-31T13:20:32.220Z,1444.00
2018-07-31T13:21:32.218Z,1396.00
2018-07-31T13:22:32.200Z,1380.00
2018-07-31T13:23:32.190Z,1380.00
2018-07-31T13:24:32.175Z,1388.00
2018-07-31T13:25:32.165Z,1304.00
2018-07-31T13:26:32.167Z,1248.00
2018-07-31T13:27:32.145Z,1244.00
2018-07-31T13:28:32.134Z,1288.00
2018-07-31T13:29:32.123Z,1352.00
2018-07-31T13:30:32.112Z,1472.00
2018-07-31T13:31:32.114Z,1520.00
2018-07-31T13:32:32.092Z,1500.00
2018-07-31T13:33:32.082Z,1624.00
2018-07-31T13:34:32.071Z,1720.00
2018-07-31T13:35:32.063Z,1588.00
2018-07-31T13:36:32.064Z,1624.00
2018-07-31T13:37:32.047Z,1836.00
2018-07-31T13:38:32.028Z,1840.00
2018-07-31T13:39:32.042Z,1872.00
2018-07-31T13:40:32.006Z,1928.00
2018-07-31T13:41:32.008Z,1876.00
2018-07-31T13:42:31.999Z,1932.00
2018-07-31T13:43:32.074Z,2004.00
2018-07-31T13:44:31.964Z,2016.00
2018-07-31T13:45:31.987Z,1964.00
2018-07-31T13:46:31.953Z,1964.00
2018-07-31T13:47:31.935Z,1964.00
2018-07-31T13:48:31.923Z,1940.00
2018-07-31T13:49:31.953Z,1952.00
2018-07-31T13:50:31.902Z,1992.00
2018-07-31T13:51:31.889Z,1984.00
2018-07-31T13:52:31.949Z,1980.00
2018-07-31T13:53:31.869Z,1976.00
2018-07-31T13:54:31.860Z,2024.00
2018-07-31T13:55:31.902Z,1992.00
2018-07-31T13:56:31.841Z,2112.00
2018-07-31T13:57:31.836Z,2164.00
2018-07-31T13:58:31.815Z,2228.00
2018-07-31T13:59:31.805Z,2240.00
2018-07-31T14:00:31.796Z,2264.00
2018-07-31T14:01:31.817Z,2280.00
2018-07-31T14:02:31.784Z,2296.00
2018-07-31T14:03:31.808Z,2300.00
2018-07-31T14:04:31.783Z,2204.00
2018-07-31T14:05:31.745Z,2048.00
2018-07-31T14:06:31.733Z,1836.00
2018-07-31T14:07:31.731Z,1656.00
2018-07-31T14:08:31.712Z,1580.00
2018-07-31T14:09:31.712Z,1536.00
2018-07-31T14:10:31.726Z,1520.00
2018-07-31T14:11:31.968Z,1540.00
2018-07-31T14:12:31.714Z,1556.00
2018-07-31T14:13:31.660Z,1556.00
2018-07-31T14:14:31.794Z,1524.00
2018-07-31T14:15:31.732Z,1508.00
2018-07-31T14:16:31.743Z,1484.00
2018-07-31T14:17:31.629Z,1452.00
2018-07-31T14:18:31.663Z,1452.00
2018-07-31T14:19:31.596Z,1472.00
2018-07-31T14:20:31.631Z,1448.00
2018-07-31T14:21:31.667Z,1460.00
2018-07-31T14:22:31.574Z,1484.00
2018-07-31T14:23:31.553Z,1496.00
2018-07-31T14:24:31.543Z,1504.00
2018-07-31T14:25:31.533Z,1560.00
2018-07-31T14:26:31.522Z,1624.00
2018-07-31T14:27:31.524Z,1728.00
2018-07-31T14:28:31.500Z,1804.00
2018-07-31T14:29:31.489Z,1816.00
2018-07-31T14:30:31.575Z,1816.00
2018-07-31T14:31:31.469Z,1808.00
2018-07-31T14:32:31.469Z,1744.00
2018-07-31T14:33:31.452Z,1688.00
2018-07-31T14:34:31.445Z,1624.00
2018-07-31T14:35:31.425Z,1556.00
2018-07-31T14:36:31.428Z,1512.00
2018-07-31T14:37:31.416Z,1476.00
2018-07-31T14:38:31.395Z,1444.00
2018-07-31T14:39:31.383Z,1416.00
2018-07-31T14:40:31.375Z,1384.00
2018-07-31T14:41:31.364Z,1376.00
2018-07-31T14:42:31.387Z,1396.00
2018-07-31T14:43:31.344Z,1376.00
2018-07-31T14:44:31.338Z,1376.00
2018-07-31T14:45:31.322Z,1372.00
2018-07-31T14:46:31.322Z,1392.00
2018-07-31T14:47:31.302Z,1404.00
2018-07-31T14:48:31.338Z,1424.00
2018-07-31T14:49:31.278Z,1444.00
2018-07-31T14:50:31.271Z,1464.00
2018-07-31T14:51:31.261Z,1512.00
2018-07-31T14:52:31.246Z,1560.00
2018-07-31T14:53:31.261Z,1572.00
2018-07-31T14:54:31.227Z,1548.00
2018-07-31T14:55:31.217Z,1540.00
2018-07-31T14:56:31.207Z,1560.00
2018-07-31T14:57:31.195Z,1564.00
2018-07-31T14:58:31.303Z,1552.00
2018-07-31T14:59:31.178Z,1540.00
2018-07-31T15:00:31.163Z,1520.00
2018-07-31T15:01:31.156Z,1436.00
2018-07-31T15:02:31.144Z,1376.00
2018-07-31T15:03:31.143Z,1332.00
2018-07-31T15:04:31.122Z,1312.00
2018-07-31T15:05:31.113Z,1320.00
2018-07-31T15:06:31.101Z,1348.00
2018-07-31T15:07:31.091Z,1352.00
2018-07-31T15:08:31.302Z,1304.00
2018-07-31T15:09:31.069Z,1272.00
2018-07-31T15:10:31.059Z,1264.00
2018-07-31T15:11:31.049Z,1280.00
2018-07-31T15:12:31.035Z,1276.00
2018-07-31T15:13:31.039Z,1276.00
2018-07-31T15:14:31.015Z,1288.00
2018-07-31T15:15:31.005Z,1236.00
2018-07-31T15:16:30.997Z,1224.00
2018-07-31T15:17:30.984Z,1224.00
2018-07-31T15:18:30.983Z,1228.00
2018-07-31T15:19:30.961Z,1244.00
2018-07-31T15:20:30.952Z,1260.00
2018-07-31T15:21:30.949Z,1268.00
2018-07-31T15:22:30.932Z,1308.00
2018-07-31T15:23:30.982Z,1316.00
2018-07-31T15:24:30.921Z,1364.00
2018-07-31T15:25:30.910Z,1416.00
2018-07-31T15:26:30.889Z,1456.00
2018-07-31T15:27:30.877Z,1440.00
2018-07-31T15:28:30.868Z,1368.00
2018-07-31T15:29:30.889Z,1276.00
2018-07-31T15:30:30.845Z,1268.00
2018-07-31T15:31:30.836Z,1316.00
2018-07-31T15:32:30.826Z,1324.00
2018-07-31T15:33:30.812Z,1352.00
2018-07-31T15:34:30.857Z,1392.00
2018-07-31T15:35:30.795Z,1444.00
2018-07-31T15:36:30.782Z,1500.00
2018-07-31T15:37:30.770Z,1540.00
2018-07-31T15:38:30.762Z,1576.00
2018-07-31T15:39:30.776Z,1628.00
2018-07-31T15:40:30.741Z,1700.00
2018-07-31T15:41:30.728Z,1800.00
2018-07-31T15:42:30.716Z,1904.00
2018-07-31T15:43:30.709Z,1972.00
2018-07-31T15:44:30.744Z,1988.00
2018-07-31T15:45:30.686Z,1952.00
2018-07-31T15:46:30.675Z,1928.00
2018-07-31T15:47:30.679Z,1952.00
2018-07-31T15:48:30.655Z,1988.00
2018-07-31T15:49:30.655Z,2012.00
2018-07-31T15:50:30.633Z,2044.00
2018-07-31T15:51:30.622Z,2048.00
2018-07-31T15:52:30.612Z,2060.00
2018-07-31T15:53:30.600Z,2084.00
2018-07-31T15:54:30.600Z,2148.00
2018-07-31T15:55:30.579Z,2180.00
2018-07-31T15:56:30.570Z,2152.00
2018-07-31T15:57:30.558Z,2116.00
2018-07-31T15:58:30.547Z,2132.00
2018-07-31T15:59:30.555Z,2136.00
2018-07-31T16:00:30.528Z,2108.00
2018-07-31T16:01:30.520Z,2072.00
2018-07-31T16:02:30.512Z,2060.00
2018-07-31T16:03:30.496Z,2008.00
2018-07-31T16:04:30.516Z,2024.00
2018-07-31T16:05:30.476Z,2032.00
2018-07-31T16:06:30.523Z,2016.00